Time;durP1;ratioP1;P1;durP2;ratioP2;P2;SDS_P1;SDS_P2;PMS_P1;PMS_P2;Temp;Humidity;BMP_temperature;BMP_pressure;BME280_temperature;BME280_humidity;BME280_pressure;Samples;Min_cycle;Max_cycle;Signal;HPM_P1;HPM_P2
2021/01/19 00:02:06;;;;;;;19.30;8.93;;;;;;;4.09;86.14;101254.53;10165139;28;20041;-69
2021/01/19 00:07:03;;;;;;;17.38;8.45;;;;;;;4.05;85.97;101236.38;10176256;28;20053;-69
2021/01/19 00:11:59;;;;;;;19.75;8.93;;;;;;;4.07;85.69;101245.03;10170458;28;20628;-70
2021/01/19 00:16:55;;;;;;;20.20;9.35;;;;;;;4.09;85.74;101237.50;10173877;28;20053;-70
2021/01/19 00:21:51;;;;;;;17.38;10.25;;;;;;;4.08;85.31;101230.44;10176843;28;20048;-67
2021/01/19 00:26:47;;;;;;;23.98;10.73;;;;;;;4.08;85.38;101214.19;10173552;28;20072;-68
2021/01/19 00:31:43;;;;;;;22.10;11.48;;;;;;;4.12;84.34;101226.13;10183981;28;20046;-67
2021/01/19 00:36:39;;;;;;;20.95;12.02;;;;;;;4.06;84.95;101232.56;10178031;28;20053;-71
2021/01/19 00:41:35;;;;;;;24.80;13.20;;;;;;;4.05;85.24;101225.53;10179061;28;20143;-69
2021/01/19 00:46:31;;;;;;;24.27;13.88;;;;;;;4.05;85.35;101225.53;10174418;28;20065;-66
2021/01/19 00:51:34;;;;;;;26.92;13.65;;;;;;;4.06;84.95;101213.63;10183185;28;20061;-71
2021/01/19 00:56:37;;;;;;;24.40;14.83;;;;;;;4.00;85.21;101208.19;10180376;28;20061;-71
2021/01/19 01:01:35;;;;;;;30.97;15.20;;;;;;;4.05;84.70;101193.88;10181501;28;20049;-69
2021/01/19 01:06:31;;;;;;;31.65;14.32;;;;;;;4.00;84.86;101186.56;10180107;28;20139;-67
2021/01/19 01:11:35;;;;;;;33.08;15.65;;;;;;;3.98;84.28;101177.06;10182513;28;20057;-67
2021/01/19 01:16:31;;;;;;;29.40;16.90;;;;;;;4.08;84.26;101170.88;10182306;28;20056;-68
2021/01/19 01:21:27;;;;;;;28.20;16.45;;;;;;;4.11;84.28;101181.22;10168020;28;20042;-71
2021/01/19 01:26:23;;;;;;;26.77;15.63;;;;;;;4.04;84.58;101150.84;10172070;28;20054;-70
2021/01/19 01:31:20;;;;;;;28.08;15.75;;;;;;;3.97;84.12;101148.41;10178971;28;20052;-70
2021/01/19 01:36:16;;;;;;;29.02;16.40;;;;;;;4.04;83.74;101145.44;10181847;28;20061;-67
2021/01/19 01:41:16;;;;;;;30.65;16.95;;;;;;;4.05;83.79;101147.06;10191613;28;20046;-68
2021/01/19 01:46:14;;;;;;;31.08;16.13;;;;;;;3.97;83.49;101135.69;10187568;28;20060;-67
2021/01/19 01:51:11;;;;;;;24.88;14.95;;;;;;;3.94;83.61;101133.47;10175402;28;20499;-68
2021/01/19 01:56:09;;;;;;;30.10;16.70;;;;;;;3.93;84.16;101125.66;10175862;28;20041;-69
2021/01/19 02:01:05;;;;;;;23.25;14.65;;;;;;;3.88;83.67;101134.56;10185416;28;20495;-68
2021/01/19 02:06:02;;;;;;;27.65;14.90;;;;;;;3.84;83.68;101119.09;10178252;28;20133;-68
2021/01/19 02:11:01;;;;;;;31.23;15.38;;;;;;;3.78;83.34;101107.44;10187404;28;20046;-69
2021/01/19 02:16:10;;;;;;;37.95;17.35;;;;;;;3.76;83.57;101109.56;10189224;28;20145;-70
2021/01/19 02:21:32;;;;;;;29.25;18.02;;;;;;;3.83;84.05;101098.53;10197928;28;20502;-67
2021/01/19 02:26:47;;;;;;;29.05;18.00;;;;;;;3.73;83.71;101091.19;10186261;28;20042;-67
2021/01/19 02:32:00;;;;;;;30.92;17.73;;;;;;;3.69;83.94;101087.38;10189983;28;20060;-70
2021/01/19 02:37:06;;;;;;;27.83;17.33;;;;;;;3.73;84.34;101093.88;10182420;28;21845;-69
2021/01/19 02:42:08;;;;;;;34.40;19.63;;;;;;;3.72;84.69;101081.44;10200076;28;20483;-68
2021/01/19 02:47:04;;;;;;;32.60;19.30;;;;;;;3.80;84.16;101078.22;10182243;28;21053;-69
2021/01/19 02:52:01;;;;;;;30.95;19.35;;;;;;;3.80;83.90;101072.81;10188754;28;20123;-69
2021/01/19 02:57:13;;;;;;;31.88;19.35;;;;;;;3.81;84.10;101058.22;10175393;28;20132;-70
2021/01/19 03:02:19;;;;;;;37.05;20.90;;;;;;;3.80;84.24;101052.00;10182369;28;20068;-68
2021/01/19 03:07:17;;;;;;;32.05;21.83;;;;;;;3.84;83.63;101038.75;10173452;28;20046;-68
2021/01/19 03:12:15;;;;;;;37.13;22.27;;;;;;;3.89;83.54;101033.38;10179733;28;20081;-68
2021/01/19 03:17:12;;;;;;;36.30;22.13;;;;;;;3.87;84.44;101027.41;10180746;28;20058;-69
2021/01/19 03:22:10;;;;;;;37.95;23.48;;;;;;;3.92;83.77;101022.03;10167718;28;20064;-68
2021/01/19 03:27:07;;;;;;;37.45;22.80;;;;;;;3.90;84.25;101007.97;10172376;28;20447;-67
2021/01/19 03:32:03;;;;;;;42.35;24.73;;;;;;;3.95;83.06;101002.56;10184025;28;20107;-69
2021/01/19 03:37:01;;;;;;;40.83;25.08;;;;;;;3.99;83.03;100995.53;10163371;28;20570;-68
2021/01/19 03:41:57;;;;;;;36.83;22.27;;;;;;;3.94;83.59;100987.38;10177522;28;20496;-69
2021/01/19 03:46:53;;;;;;;36.63;21.88;;;;;;;3.92;83.97;100989.56;10172081;28;20054;-68
2021/01/19 03:51:49;;;;;;;37.03;24.17;;;;;;;3.93;83.49;100980.34;10173787;28;20546;-68
2021/01/19 03:56:46;;;;;;;41.17;24.27;;;;;;;4.06;82.85;100961.97;10175660;28;20066;-68
2021/01/19 04:01:43;;;;;;;40.17;23.85;;;;;;;3.98;83.43;100961.44;10181003;28;20515;-69
2021/01/19 04:06:39;;;;;;;41.92;24.23;;;;;;;4.00;83.89;100948.44;10181159;28;20077;-69
2021/01/19 04:11:36;;;;;;;44.20;22.58;;;;;;;3.91;83.76;100933.81;10182678;28;20406;-69
2021/01/19 04:16:31;;;;;;;34.78;24.00;;;;;;;4.00;83.90;100923.28;10175379;28;20062;-68
2021/01/19 04:21:29;;;;;;;36.88;24.00;;;;;;;3.92;84.91;100912.97;10181303;28;20454;-70
2021/01/19 04:26:26;;;;;;;39.55;25.70;;;;;;;3.91;84.51;100906.78;10175058;28;20057;-69
2021/01/19 04:31:22;;;;;;;39.85;24.35;;;;;;;3.90;84.88;100899.75;10178812;28;20057;-69
2021/01/19 04:36:18;;;;;;;41.20;24.77;;;;;;;3.87;85.26;100894.03;10174009;28;20164;-69
2021/01/19 04:41:14;;;;;;;38.17;25.83;;;;;;;3.80;85.98;100878.88;10163601;28;20055;-69
2021/01/19 04:46:11;;;;;;;43.75;26.70;;;;;;;3.76;86.74;100876.97;10175832;28;20050;-69
2021/01/19 04:51:17;;;;;;;43.22;25.50;;;;;;;3.74;86.98;100884.56;10176244;28;20076;-70
2021/01/19 04:56:19;;;;;;;43.00;25.90;;;;;;;3.75;87.51;100864.56;10176664;28;20077;-66
2021/01/19 05:01:37;;;;;;;38.58;24.02;;;;;;;3.72;87.91;100848.88;10167548;28;20068;-67
2021/01/19 05:06:41;;;;;;;33.00;22.45;;;;;;;3.65;87.36;100838.31;10180233;28;20151;-67
2021/01/19 05:11:49;;;;;;;39.17;22.67;;;;;;;3.62;88.32;100822.63;10191014;28;20054;-69
2021/01/19 05:16:49;;;;;;;40.03;22.50;;;;;;;3.57;88.23;100820.75;10178986;28;20056;-70
2021/01/19 05:21:48;;;;;;;38.75;23.00;;;;;;;3.57;88.31;100814.50;10178817;28;20049;-69
2021/01/19 05:26:44;;;;;;;36.67;23.77;;;;;;;3.62;88.49;100794.75;10178132;28;20108;-69
2021/01/19 05:31:41;;;;;;;35.00;21.23;;;;;;;3.42;88.26;100784.75;10195312;28;20449;-68
2021/01/19 05:36:48;;;;;;;29.35;20.23;;;;;;;3.47;88.79;100777.44;10197184;28;20054;-67
2021/01/19 05:41:54;;;;;;;30.65;18.58;;;;;;;3.35;88.64;100760.69;10197985;28;20511;-68
2021/01/19 05:47:01;;;;;;;26.83;16.10;;;;;;;3.30;88.64;100760.69;10169118;28;20073;-69
2021/01/19 05:52:02;;;;;;;26.80;15.77;;;;;;;3.34;88.49;100740.13;10171414;28;20101;-68
2021/01/19 05:57:09;;;;;;;24.90;15.20;;;;;;;3.20;89.12;100733.63;10171212;28;20047;-68
2021/01/19 06:02:17;;;;;;;25.20;15.35;;;;;;;3.16;89.37;100717.97;10166558;28;20108;-68
2021/01/19 06:07:15;;;;;;;22.80;15.35;;;;;;;3.08;89.14;100702.25;10173039;28;20049;-67
2021/01/19 06:12:12;;;;;;;27.40;16.70;;;;;;;3.07;89.89;100697.97;10183879;28;20100;-66
2021/01/19 06:17:20;;;;;;;26.92;17.75;;;;;;;3.03;89.50;100680.66;10177697;28;20116;-65
2021/01/19 06:22:19;;;;;;;24.05;16.25;;;;;;;3.05;89.12;100661.50;10190414;28;20069;-66
2021/01/19 06:27:20;;;;;;;25.55;16.35;;;;;;;3.03;89.59;100664.44;10177301;28;20066;-66
2021/01/19 06:32:18;;;;;;;22.02;15.05;;;;;;;3.02;89.24;100662.00;10180936;28;20486;-66
2021/01/19 06:37:28;;;;;;;23.13;15.40;;;;;;;3.08;89.33;100642.84;10181122;28;20069;-66
2021/01/19 06:42:27;;;;;;;23.05;16.50;;;;;;;2.97;89.18;100633.13;10175356;28;20042;-66
2021/01/19 06:47:23;;;;;;;19.75;14.45;;;;;;;3.02;89.42;100625.03;10174875;28;20562;-66
2021/01/19 06:52:37;;;;;;;22.25;15.80;;;;;;;3.02;89.78;100600.72;10186307;28;20099;-66
2021/01/19 06:58:02;;;;;;;26.38;15.60;;;;;;;2.97;89.64;100594.47;10184038;28;20052;-66
2021/01/19 07:03:17;;;;;;;13.57;10.50;;;;;;;2.81;89.25;100588.25;10166171;28;20046;-66
2021/01/19 07:08:19;;;;;;;19.30;13.18;;;;;;;2.88;89.32;100586.13;10179376;28;20074;-66
2021/01/19 07:13:21;;;;;;;17.92;13.63;;;;;;;2.92;89.60;100570.97;10184382;28;20451;-66
2021/01/19 07:18:30;;;;;;;16.73;12.33;;;;;;;2.82;89.67;100566.41;10183654;28;20133;-67
2021/01/19 07:23:45;;;;;;;21.77;13.13;;;;;;;2.74;89.39;100554.25;10185199;28;20223;-66
2021/01/19 07:28:42;;;;;;;21.40;14.55;;;;;;;2.76;90.00;100539.66;10173336;28;20050;-66
2021/01/19 07:33:45;;;;;;;22.58;12.77;;;;;;;2.65;90.13;100547.78;10187934;28;20066;-66
2021/01/19 07:38:41;;;;;;;22.23;14.93;;;;;;;2.70;90.76;100536.97;10171816;28;20049;-66
2021/01/19 07:43:38;;;;;;;20.10;12.75;;;;;;;2.74;90.29;100532.66;10184931;28;20126;-66
2021/01/19 07:48:59;;;;;;;21.23;13.65;;;;;;;2.57;90.12;100518.59;10177452;28;20688;-66
2021/01/19 07:53:55;;;;;;;20.98;13.43;;;;;;;2.61;90.16;100511.59;10188831;28;20451;-67
2021/01/19 07:58:52;;;;;;;17.90;11.32;;;;;;;2.65;90.09;100493.78;10175582;28;20710;-67
2021/01/19 08:03:48;;;;;;;17.73;11.02;;;;;;;2.66;89.68;100491.88;10177159;28;20137;-67
2021/01/19 08:08:44;;;;;;;18.73;11.93;;;;;;;2.63;89.80;100476.22;10178771;28;20041;-67
2021/01/19 08:13:41;;;;;;;17.52;11.95;;;;;;;2.70;90.55;100466.78;10178714;28;20053;-67
2021/01/19 08:18:42;;;;;;;14.07;9.65;;;;;;;2.69;89.87;100459.78;10184479;28;20128;-66
2021/01/19 08:23:38;;;;;;;17.23;10.23;;;;;;;2.58;89.83;100441.97;10158377;28;20073;-67
2021/01/19 08:28:36;;;;;;;16.27;9.05;;;;;;;2.54;89.83;100440.88;10159962;28;20500;-67
2021/01/19 08:33:32;;;;;;;15.23;8.55;;;;;;;2.66;90.11;100433.28;10152759;28;20046;-67
2021/01/19 08:38:30;;;;;;;12.77;8.02;;;;;;;2.72;89.85;100432.22;10153976;28;20073;-67
2021/01/19 08:43:27;;;;;;;13.75;8.90;;;;;;;2.53;90.03;100417.69;10161644;28;20141;-67
2021/01/19 08:48:24;;;;;;;13.27;7.57;;;;;;;2.58;90.19;100409.56;10157799;28;20042;-67
2021/01/19 08:53:20;;;;;;;10.45;7.32;;;;;;;2.63;90.00;100390.66;10191403;28;20500;-67
2021/01/19 08:58:20;;;;;;;11.43;6.03;;;;;;;2.70;90.17;100385.78;10175624;28;20573;-67
2021/01/19 09:03:17;;;;;;;16.17;6.80;;;;;;;2.70;90.40;100380.38;10179892;28;20470;-67
2021/01/19 09:08:35;;;;;;;18.05;5.97;;;;;;;2.72;89.74;100367.41;10175048;28;20049;-67
2021/01/19 09:13:35;;;;;;;20.15;5.22;;;;;;;2.53;89.60;100369.09;10178072;28;20583;-66
2021/01/19 09:18:31;;;;;;;30.95;5.93;;;;;;;2.57;90.14;100359.34;10181916;28;20100;-67
2021/01/19 09:23:34;;;;;;;11.70;5.03;;;;;;;2.60;90.33;100348.03;10181462;28;20507;-67
2021/01/19 09:28:33;;;;;;;12.57;3.90;;;;;;;2.59;89.69;100341.00;10177384;28;20061;-66
2021/01/19 09:33:32;;;;;;;23.25;5.95;;;;;;;2.50;89.62;100331.84;10180454;28;20108;-66
2021/01/19 09:38:28;;;;;;;10.48;4.40;;;;;;;2.56;90.30;100319.97;10179101;28;20132;-67
2021/01/19 09:43:24;;;;;;;19.27;4.53;;;;;;;2.59;89.60;100321.28;10185580;28;20065;-66
2021/01/19 09:48:20;;;;;;;14.18;4.05;;;;;;;2.65;89.70;100307.53;10183314;28;20541;-66
2021/01/19 09:53:24;;;;;;;7.90;3.53;;;;;;;2.78;89.51;100289.09;10184237;28;20764;-66
2021/01/19 09:58:22;;;;;;;7.37;4.03;;;;;;;2.85;89.30;100284.22;10176363;28;20053;-66
2021/01/19 10:03:20;;;;;;;7.45;4.35;;;;;;;2.80;89.38;100276.16;10185518;28;20046;-67
2021/01/19 10:08:22;;;;;;;7.82;4.18;;;;;;;2.77;89.11;100261.31;10185827;28;20074;-67
2021/01/19 10:13:27;;;;;;;13.70;4.30;;;;;;;2.79;89.44;100247.53;10165710;28;20046;-67
2021/01/19 10:18:35;;;;;;;10.55;4.47;;;;;;;2.74;89.89;100235.69;10161918;28;20049;-66
2021/01/19 10:23:33;;;;;;;10.57;4.45;;;;;;;2.77;90.54;100236.22;10169752;28;20050;-67
2021/01/19 10:28:36;;;;;;;25.58;5.88;;;;;;;2.78;90.38;100210.81;10172298;28;20420;-67
2021/01/19 10:33:39;;;;;;;10.40;4.50;;;;;;;2.91;89.79;100202.91;10170605;28;20054;-67
2021/01/19 10:38:38;;;;;;;12.65;4.45;;;;;;;2.92;89.94;100196.44;10167626;28;20111;-67
2021/01/19 10:43:34;;;;;;;8.80;4.13;;;;;;;3.06;90.21;100188.50;10188917;28;20050;-67
2021/01/19 10:48:30;;;;;;;8.70;3.10;;;;;;;2.99;89.68;100171.00;10180011;28;20061;-67
2021/01/19 10:53:29;;;;;;;9.15;4.70;;;;;;;3.09;90.07;100170.94;10185860;28;20093;-67
2021/01/19 10:58:25;;;;;;;16.88;4.10;;;;;;;3.18;90.55;100158.44;10184221;28;20121;-67
2021/01/19 11:03:21;;;;;;;18.65;3.10;;;;;;;3.21;89.52;100157.06;10180063;28;20053;-67
2021/01/19 11:08:17;;;;;;;9.32;3.20;;;;;;;3.22;89.78;100145.16;10187248;28;20044;-68
2021/01/19 11:13:13;;;;;;;24.13;3.97;;;;;;;3.25;89.82;100137.31;10186787;28;20073;-66
2021/01/19 11:18:11;;;;;;;13.40;4.10;;;;;;;3.24;90.64;100135.69;10172844;28;20093;-67
2021/01/19 11:23:07;;;;;;;6.05;2.83;;;;;;;3.31;90.11;100113.75;10176067;28;20500;-67
2021/01/19 11:28:03;;;;;;;8.38;3.33;;;;;;;3.35;90.43;100104.78;10170805;28;20049;-67
2021/01/19 11:33:00;;;;;;;6.40;2.95;;;;;;;3.41;91.28;100100.13;10183079;28;20046;-67
2021/01/19 11:37:56;;;;;;;8.00;3.53;;;;;;;3.43;91.65;100089.84;10171803;28;20046;-67
2021/01/19 11:42:52;;;;;;;7.95;4.10;;;;;;;3.50;91.51;100090.31;10200523;28;20050;-67
2021/01/19 11:47:48;;;;;;;6.40;4.25;;;;;;;3.51;91.25;100075.72;10171513;28;20042;-67
2021/01/19 11:52:45;;;;;;;6.13;4.35;;;;;;;3.44;92.41;100063.66;10167063;28;20129;-68
2021/01/19 11:57:41;;;;;;;11.32;4.95;;;;;;;3.62;91.84;100051.28;10162833;28;20046;-67
2021/01/19 12:02:37;;;;;;;8.30;5.00;;;;;;;3.62;92.04;100048.56;10168917;28;20049;-67
2021/01/19 12:07:38;;;;;;;7.15;4.78;;;;;;;3.74;91.54;100040.88;10167491;28;20499;-67
2021/01/19 12:12:35;;;;;;;8.15;4.60;;;;;;;3.74;91.96;100032.75;10167711;28;20049;-67
2021/01/19 12:17:31;;;;;;;8.75;4.72;;;;;;;3.87;91.49;100017.72;10179695;28;20100;-67
2021/01/19 12:22:28;;;;;;;9.05;5.50;;;;;;;3.85;92.14;100020.69;10176477;28;20413;-67
2021/01/19 12:27:24;;;;;;;7.72;4.47;;;;;;;3.86;91.45;100008.00;10168008;28;20042;-67
2021/01/19 12:32:20;;;;;;;7.93;4.65;;;;;;;3.88;91.50;100003.91;10173278;28;20076;-67
2021/01/19 12:37:16;;;;;;;6.30;3.53;;;;;;;3.97;91.24;99996.75;10159180;28;20060;-67
2021/01/19 12:42:12;;;;;;;5.50;3.30;;;;;;;3.93;91.50;99990.31;10163168;28;20484;-67
2021/01/19 12:47:08;;;;;;;5.22;3.67;;;;;;;3.97;91.81;99971.63;10162961;28;20042;-67
2021/01/19 12:52:09;;;;;;;7.50;4.57;;;;;;;3.96;91.69;99973.50;10167560;28;20076;-67
2021/01/19 12:57:05;;;;;;;6.30;3.75;;;;;;;4.05;91.34;99970.16;10169867;28;20042;-67
2021/01/19 13:02:02;;;;;;;4.47;3.60;;;;;;;4.11;92.00;99961.69;10189827;28;20042;-67
2021/01/19 13:06:59;;;;;;;6.28;3.45;;;;;;;4.13;91.16;99951.38;10179646;28;20511;-67
2021/01/19 13:11:55;;;;;;;7.00;4.18;;;;;;;4.20;92.04;99950.97;10182117;28;20060;-67
2021/01/19 13:16:52;;;;;;;5.72;3.72;;;;;;;4.14;92.42;99957.56;10173666;28;20050;-67
2021/01/19 13:21:48;;;;;;;9.13;4.80;;;;;;;4.19;91.84;99943.97;10190193;28;20048;-67
2021/01/19 13:26:44;;;;;;;5.47;4.25;;;;;;;4.21;91.89;99941.78;10179148;28;20048;-67
2021/01/19 13:31:40;;;;;;;5.32;4.28;;;;;;;4.26;91.94;99947.09;10183862;28;20088;-67
2021/01/19 13:36:36;;;;;;;7.63;4.70;;;;;;;4.28;92.20;99936.00;10169717;28;20121;-67
2021/01/19 13:41:32;;;;;;;8.25;5.25;;;;;;;4.28;91.77;99944.91;10174081;28;20120;-67
2021/01/19 13:46:30;;;;;;;8.55;5.85;;;;;;;4.24;92.86;99946.59;10165328;28;20500;-68
2021/01/19 13:51:27;;;;;;;7.38;6.18;;;;;;;4.25;92.41;99948.22;10176756;28;20049;-67
2021/01/19 13:56:24;;;;;;;11.38;7.63;;;;;;;4.28;93.21;99936.00;10182600;28;20112;-67
2021/01/19 14:01:20;;;;;;;9.52;7.13;;;;;;;4.29;93.55;99938.38;10184393;28;20073;-67
2021/01/19 14:06:16;;;;;;;10.25;7.43;;;;;;;4.38;93.16;99944.72;10202561;28;20607;-67
2021/01/19 14:11:12;;;;;;;11.48;7.88;;;;;;;4.39;93.40;99932.81;10205721;28;20052;-68
2021/01/19 14:16:08;;;;;;;12.88;8.48;;;;;;;4.40;93.25;99945.25;10176626;28;20101;-68
2021/01/19 14:21:04;;;;;;;14.52;8.98;;;;;;;4.46;93.24;99937.06;10180666;28;20104;-68
2021/01/19 14:26:00;;;;;;;14.00;9.40;;;;;;;4.47;93.74;99934.03;10176023;28;20046;-68
2021/01/19 14:30:56;;;;;;;14.23;9.73;;;;;;;4.49;93.64;99945.38;10179900;28;20046;-68
2021/01/19 14:35:52;;;;;;;11.85;8.63;;;;;;;4.56;93.85;99943.09;10185584;28;20068;-68
2021/01/19 14:40:49;;;;;;;10.10;8.05;;;;;;;4.61;93.34;99929.47;10203961;28;20093;-68
2021/01/19 14:45:45;;;;;;;17.88;9.88;;;;;;;4.63;93.72;99937.31;10179738;28;20084;-68
2021/01/19 14:50:41;;;;;;;12.77;9.40;;;;;;;4.65;94.02;99940.53;10172607;28;20069;-66
2021/01/19 14:55:37;;;;;;;14.35;9.02;;;;;;;4.69;93.34;99946.97;10172173;28;20553;-66
2021/01/19 15:00:33;;;;;;;14.57;9.40;;;;;;;4.71;93.58;99955.59;10178325;28;20041;-67
2021/01/19 15:05:29;;;;;;;13.88;10.98;;;;;;;4.75;93.64;99956.56;10177659;28;20057;-67
2021/01/19 15:10:26;;;;;;;14.13;10.80;;;;;;;4.77;93.87;99951.66;10172240;28;20052;-67
2021/01/19 15:15:23;;;;;;;14.73;9.98;;;;;;;4.80;94.21;99964.66;10176095;28;20104;-69
2021/01/19 15:20:19;;;;;;;16.00;11.85;;;;;;;4.82;94.25;99962.41;10180308;28;20182;-65
2021/01/19 15:25:15;;;;;;;15.10;10.70;;;;;;;4.87;94.36;99969.66;10174610;28;20050;-66
2021/01/19 15:30:11;;;;;;;15.88;12.15;;;;;;;4.93;94.29;99973.09;10184653;28;20479;-67
2021/01/19 15:35:08;;;;;;;14.15;10.43;;;;;;;4.99;94.67;99963.75;10182601;28;20221;-66
2021/01/19 15:40:05;;;;;;;18.25;12.32;;;;;;;5.02;94.25;99965.88;10179485;28;20049;-68
2021/01/19 15:45:06;;;;;;;17.15;12.18;;;;;;;5.06;94.69;99973.09;10175960;28;20054;-68
2021/01/19 15:50:03;;;;;;;17.73;12.10;;;;;;;5.11;94.83;99974.91;10211903;28;20551;-69
2021/01/19 15:54:59;;;;;;;19.10;13.48;;;;;;;5.11;94.42;99974.91;10196228;28;20041;-69
2021/01/19 15:59:55;;;;;;;22.35;14.45;;;;;;;5.13;95.23;99983.56;10201128;28;20431;-70
2021/01/19 16:04:51;;;;;;;28.67;16.58;;;;;;;5.15;95.15;99980.53;10182603;28;20050;-67
2021/01/19 16:10:08;;;;;;;32.53;20.45;;;;;;;5.18;95.33;99972.63;10171840;28;20060;-66
2021/01/19 16:15:04;;;;;;;28.42;18.48;;;;;;;5.24;95.91;99974.13;10184393;28;20463;-65
2021/01/19 16:20:00;;;;;;;30.70;19.95;;;;;;;5.30;95.47;99977.53;10184732;28;20050;-68
2021/01/19 16:24:56;;;;;;;30.38;19.40;;;;;;;5.32;95.84;99985.38;10168605;28;20111;-68
2021/01/19 16:29:52;;;;;;;31.90;20.52;;;;;;;5.37;95.55;99977.16;10173388;28;20042;-68
2021/01/19 16:34:48;;;;;;;33.30;20.55;;;;;;;5.40;95.81;99971.13;10163740;28;20056;-68
2021/01/19 16:39:44;;;;;;;34.28;20.58;;;;;;;5.47;95.94;99966.88;10175331;28;20044;-67
2021/01/19 16:44:40;;;;;;;35.53;20.88;;;;;;;5.46;96.04;99978.84;10182081;28;20053;-65
2021/01/19 16:49:38;;;;;;;37.53;22.20;;;;;;;5.53;95.95;99975.75;10181129;28;20061;-68
2021/01/19 16:54:34;;;;;;;35.88;22.02;;;;;;;5.60;96.17;99978.84;10177232;28;20484;-68
2021/01/19 16:59:30;;;;;;;35.83;20.70;;;;;;;5.65;96.57;99978.75;10173522;28;20038;-68
2021/01/19 17:04:26;;;;;;;36.13;21.80;;;;;;;5.67;96.59;99987.38;10182662;28;20483;-68
2021/01/19 17:09:22;;;;;;;33.20;19.60;;;;;;;5.73;96.29;99989.97;10195796;28;20034;-68
2021/01/19 17:14:18;;;;;;;32.05;18.50;;;;;;;5.79;96.48;99991.50;10197574;28;20399;-68
2021/01/19 17:19:14;;;;;;;30.00;17.92;;;;;;;5.87;96.78;99985.34;10184824;28;20097;-68
2021/01/19 17:24:10;;;;;;;30.83;17.83;;;;;;;5.88;97.03;99978.81;10177734;28;20459;-67
2021/01/19 17:29:06;;;;;;;31.02;18.20;;;;;;;5.93;96.62;99978.69;10183621;28;20077;-64
2021/01/19 17:34:02;;;;;;;31.63;18.33;;;;;;;5.97;96.40;99974.31;10172721;28;20141;-64
2021/01/19 17:38:59;;;;;;;31.55;17.60;;;;;;;6.01;96.73;99975.31;10187173;28;20060;-67
2021/01/19 17:43:56;;;;;;;31.92;17.05;;;;;;;6.05;96.98;99975.50;10183505;28;20061;-68
2021/01/19 17:48:53;;;;;;;29.77;16.13;;;;;;;6.08;97.00;99975.69;10188476;28;20125;-64
2021/01/19 17:54:03;;;;;;;30.65;17.10;;;;;;;6.13;96.96;99987.53;10198127;28;20050;-66
2021/01/19 17:59:01;;;;;;;29.67;17.67;;;;;;;6.18;96.94;99976.56;10185778;28;20050;-69
2021/01/19 18:03:58;;;;;;;33.38;18.27;;;;;;;6.22;96.80;99975.66;10187588;28;20046;-66
2021/01/19 18:08:55;;;;;;;29.10;17.17;;;;;;;6.27;96.95;99972.03;10169295;28;20405;-69
2021/01/19 18:13:55;;;;;;;31.33;17.45;;;;;;;6.31;96.87;99967.56;10177705;28;20542;-68
2021/01/19 18:18:51;;;;;;;28.25;16.33;;;;;;;6.38;96.79;99981.50;10172527;28;20096;-69
2021/01/19 18:23:47;;;;;;;30.25;17.63;;;;;;;6.42;96.48;99974.34;10169834;28;20046;-68
2021/01/19 18:28:43;;;;;;;29.48;16.63;;;;;;;6.44;96.47;99982.22;10162946;28;20046;-65
2021/01/19 18:33:43;;;;;;;25.77;15.63;;;;;;;6.46;96.38;99975.34;10191243;28;20045;-69
2021/01/19 18:38:39;;;;;;;23.88;14.80;;;;;;;6.49;96.63;99977.44;10168013;28;20500;-68
2021/01/19 18:43:36;;;;;;;24.45;14.05;;;;;;;6.52;96.59;99985.00;10172679;28;20046;-67
2021/01/19 18:48:33;;;;;;;24.83;15.20;;;;;;;6.56;96.42;99984.38;10173809;28;20046;-68
2021/01/19 18:53:29;;;;;;;26.65;15.93;;;;;;;6.61;96.29;99986.94;10170181;28;20050;-67
2021/01/19 18:58:25;;;;;;;27.20;14.00;;;;;;;6.63;96.66;99995.59;10181376;28;20085;-68
2021/01/19 19:03:21;;;;;;;25.90;14.55;;;;;;;6.65;96.54;99993.38;10187535;28;20052;-67
2021/01/19 19:08:17;;;;;;;23.83;14.25;;;;;;;6.70;96.33;99990.53;10176544;28;20418;-64
2021/01/19 19:13:13;;;;;;;21.70;13.52;;;;;;;6.71;96.55;99992.16;10181387;28;20073;-67
2021/01/19 19:18:10;;;;;;;23.90;13.45;;;;;;;6.72;96.26;100001.91;10184555;28;20049;-66
2021/01/19 19:23:06;;;;;;;25.77;13.88;;;;;;;6.75;96.86;99995.84;10165162;28;20038;-67
2021/01/19 19:28:02;;;;;;;24.50;14.07;;;;;;;6.78;96.55;99991.69;10165089;28;20053;-67
2021/01/19 19:33:03;;;;;;;26.55;14.07;;;;;;;6.77;96.41;99980.03;10186857;28;20096;-66
2021/01/19 19:38:00;;;;;;;28.38;15.65;;;;;;;6.80;96.80;99982.16;10177460;28;20081;-68
2021/01/19 19:42:56;;;;;;;28.02;15.98;;;;;;;6.83;96.51;99984.22;10168315;28;20575;-64
2021/01/19 19:47:52;;;;;;;28.13;14.57;;;;;;;6.81;96.67;99975.59;10179023;28;20046;-69
2021/01/19 19:52:55;;;;;;;26.50;14.95;;;;;;;6.84;96.68;99980.38;10183253;28;20132;-67
2021/01/19 19:57:51;;;;;;;22.48;12.88;;;;;;;6.85;96.56;99971.13;10177579;28;20116;-66
2021/01/19 20:02:47;;;;;;;24.45;13.95;;;;;;;6.87;97.07;99973.53;10180479;28;20049;-67
2021/01/19 20:07:43;;;;;;;23.77;13.63;;;;;;;6.87;97.18;99971.63;10180853;28;20057;-67
2021/01/19 20:12:40;;;;;;;21.00;13.27;;;;;;;6.98;97.24;99977.59;10186115;28;20045;-66
2021/01/19 20:17:36;;;;;;;24.42;15.23;;;;;;;7.02;97.04;99980.50;10192453;28;20577;-67
2021/01/19 20:22:32;;;;;;;27.35;17.40;;;;;;;7.06;97.48;99976.06;10169377;28;20056;-67
2021/01/19 20:27:28;;;;;;;37.10;21.23;;;;;;;7.11;97.08;99974.00;10176229;28;20046;-66
2021/01/19 20:32:24;;;;;;;27.65;16.90;;;;;;;7.19;97.49;99975.13;10173926;28;20140;-66
2021/01/19 20:37:21;;;;;;;28.27;15.05;;;;;;;7.24;97.28;99987.78;10170225;28;20056;-67
2021/01/19 20:42:17;;;;;;;23.23;12.05;;;;;;;7.32;97.11;99990.56;10177266;28;20048;-67
2021/01/19 20:47:12;;;;;;;21.13;11.25;;;;;;;7.40;96.92;99986.25;10172265;28;20104;-64
2021/01/19 20:52:09;;;;;;;22.58;11.38;;;;;;;7.45;96.73;100010.63;10175785;28;20045;-66
2021/01/19 20:57:05;;;;;;;15.77;9.20;;;;;;;7.55;95.58;100004.09;10186965;28;20140;-65
2021/01/19 21:02:01;;;;;;;14.07;7.47;;;;;;;7.59;95.18;99983.31;10177530;28;20057;-65
2021/01/19 21:06:57;;;;;;;13.98;7.05;;;;;;;7.58;94.91;99992.56;10171568;28;20064;-66
2021/01/19 21:11:53;;;;;;;14.95;7.90;;;;;;;7.59;94.85;99991.47;10159506;28;20389;-67
2021/01/19 21:16:49;;;;;;;17.58;8.10;;;;;;;7.61;94.17;99994.66;10174342;28;20132;-68
2021/01/19 21:21:52;;;;;;;15.98;8.52;;;;;;;7.61;94.35;100035.47;10174562;28;20129;-70
2021/01/19 21:26:48;;;;;;;17.63;8.93;;;;;;;7.64;93.09;100009.56;10150549;28;20570;-67
2021/01/19 21:31:44;;;;;;;16.45;8.30;;;;;;;7.59;93.03;100005.88;10166914;28;20440;-66
2021/01/19 21:36:41;;;;;;;15.93;7.88;;;;;;;7.57;92.77;99997.22;10179256;28;20069;-68
2021/01/19 21:41:37;;;;;;;11.00;6.78;;;;;;;7.58;92.14;99995.28;10165257;28;20510;-69
2021/01/19 21:46:33;;;;;;;16.30;6.97;;;;;;;7.54;92.30;99995.13;10154742;28;20133;-70
2021/01/19 21:51:29;;;;;;;16.58;6.90;;;;;;;7.53;91.69;100003.59;10169806;28;20049;-69
2021/01/19 21:56:25;;;;;;;17.25;7.05;;;;;;;7.52;91.31;100004.69;10184038;28;20053;-70
2021/01/19 22:01:21;;;;;;;12.23;5.13;;;;;;;7.56;90.64;99995.59;10189224;28;20057;-67
2021/01/19 22:06:17;;;;;;;13.63;6.13;;;;;;;7.61;89.77;99997.38;10187244;28;20049;-66
2021/01/19 22:11:13;;;;;;;11.77;6.40;;;;;;;7.59;90.32;99999.63;10192052;28;20081;-67
2021/01/19 22:16:09;;;;;;;13.88;6.97;;;;;;;7.59;89.88;99994.19;10188492;28;20050;-69
2021/01/19 22:21:06;;;;;;;15.27;8.07;;;;;;;7.56;90.18;99994.81;10186695;28;20042;-68
2021/01/19 22:26:02;;;;;;;17.02;9.48;;;;;;;7.57;90.38;99988.25;10191845;28;20049;-67
2021/01/19 22:30:58;;;;;;;16.40;10.25;;;;;;;7.51;90.75;99992.22;10187712;28;20048;-66
2021/01/19 22:35:54;;;;;;;14.00;9.90;;;;;;;7.40;91.80;100013.47;10185199;28;20045;-66
2021/01/19 22:40:50;;;;;;;18.35;12.70;;;;;;;7.39;92.78;100001.00;10183808;28;20046;-66
2021/01/19 22:45:46;;;;;;;15.80;11.75;;;;;;;7.29;93.54;100004.78;10182029;28;20041;-69
2021/01/19 22:50:42;;;;;;;20.23;12.75;;;;;;;7.25;93.68;100006.53;10199141;28;20533;-67